CEB714 RPUT-RPLL
Flight info
| Callsign | CEB714 |
|---|---|
| Flight time | 0h 40m |
| Altitude | 20000 |
| Route | CUY2R CUY W1 CAB CAB3R |
| Aircraft | A320/M-SDE3FGHIRWY/LB1 |
Departure
| Time | 2026-05-05 10:12 |
|---|---|
| Airport | Tuguegarao Airport (RPUT) |
Arrival
| Time | 2026-05-05 10:52 |
|---|---|
| Airport | Ninoy Aquino International Airport (RPLL) |
| Time | Latitude | Longitude | Altitude | Speed | Heading |
|---|---|---|---|---|---|
| 2026-05-05 09:55 | 17.64295 | 121.73474 | 70 ft | 0 kts | 83° |
| 2026-05-05 10:04 | 17.64295 | 121.73470 | 66 ft | 2 kts | 82° |
| 2026-05-05 10:04 | 17.64293 | 121.73453 | 73 ft | 2 kts | 85° |
| 2026-05-05 10:05 | 17.64292 | 121.73436 | 71 ft | 2 kts | 92° |
| 2026-05-05 10:05 | 17.64295 | 121.73419 | 71 ft | 2 kts | 134° |
| 2026-05-05 10:05 | 17.64306 | 121.73412 | 73 ft | 1 kts | 172° |
| 2026-05-05 10:05 | 17.64308 | 121.73412 | 71 ft | 0 kts | 173° |
| 2026-05-05 10:07 | 17.64296 | 121.73414 | 72 ft | 4 kts | 173° |
| 2026-05-05 10:07 | 17.64263 | 121.73417 | 73 ft | 5 kts | 182° |
| 2026-05-05 10:07 | 17.64224 | 121.73393 | 75 ft | 7 kts | 218° |
| 2026-05-05 10:07 | 17.64188 | 121.73362 | 74 ft | 6 kts | 219° |
| 2026-05-05 10:08 | 17.64144 | 121.73346 | 72 ft | 8 kts | 179° |
| 2026-05-05 10:08 | 17.64090 | 121.73352 | 73 ft | 9 kts | 172° |
| 2026-05-05 10:08 | 17.64051 | 121.73358 | 73 ft | 8 kts | 172° |
| 2026-05-05 10:08 | 17.63984 | 121.73367 | 72 ft | 6 kts | 172° |
| 2026-05-05 10:09 | 17.63925 | 121.73376 | 71 ft | 4 kts | 170° |
| 2026-05-05 10:09 | 17.63810 | 121.73393 | 74 ft | 16 kts | 172° |
| 2026-05-05 10:09 | 17.63693 | 121.73406 | 72 ft | 18 kts | 180° |
| 2026-05-05 10:10 | 17.63566 | 121.73413 | 74 ft | 19 kts | 173° |
| 2026-05-05 10:10 | 17.63489 | 121.73437 | 76 ft | 1 kts | 94° |
| 2026-05-05 10:10 | 17.63502 | 121.73438 | 76 ft | 4 kts | 356° |
| 2026-05-05 10:10 | 17.63516 | 121.73436 | 75 ft | 0 kts | 352° |
| 2026-05-05 10:11 | 17.63580 | 121.73427 | 75 ft | 39 kts | 353° |
| 2026-05-05 10:11 | 17.64114 | 121.73349 | 73 ft | 111 kts | 353° |
| 2026-05-05 10:11 | 17.65069 | 121.73218 | 152 ft | 156 kts | 356° |
| 2026-05-05 10:12 | 17.66147 | 121.73078 | 830 ft | 156 kts | 358° |
| 2026-05-05 10:12 | 17.67215 | 121.72929 | 1502 ft | 155 kts | 356° |
| 2026-05-05 10:12 | 17.68286 | 121.72626 | 2005 ft | 168 kts | 325° |
| 2026-05-05 10:12 | 17.68977 | 121.71640 | 2381 ft | 176 kts | 285° |
| 2026-05-05 10:13 | 17.68931 | 121.70335 | 2773 ft | 187 kts | 246° |
| 2026-05-05 10:13 | 17.68110 | 121.69280 | 3198 ft | 193 kts | 207° |
| 2026-05-05 10:13 | 17.66789 | 121.69002 | 3578 ft | 202 kts | 174° |
| 2026-05-05 10:13 | 17.65330 | 121.69123 | 3885 ft | 220 kts | 173° |
| 2026-05-05 10:14 | 17.64287 | 121.69220 | 4131 ft | 235 kts | 174° |
| 2026-05-05 10:14 | 17.62598 | 121.69374 | 4672 ft | 252 kts | 174° |
| 2026-05-05 10:14 | 17.60787 | 121.69527 | 5256 ft | 267 kts | 175° |
| 2026-05-05 10:14 | 17.58903 | 121.69676 | 6044 ft | 273 kts | 176° |
| 2026-05-05 10:15 | 17.56988 | 121.69823 | 6855 ft | 277 kts | 176° |
| 2026-05-05 10:15 | 17.54416 | 121.70019 | 7950 ft | 281 kts | 176° |
| 2026-05-05 10:15 | 17.53120 | 121.70120 | 8489 ft | 284 kts | 176° |
| 2026-05-05 10:15 | 17.51138 | 121.70275 | 9308 ft | 287 kts | 176° |
| 2026-05-05 10:16 | 17.49136 | 121.70433 | 10073 ft | 291 kts | 176° |
| 2026-05-05 10:16 | 17.47062 | 121.70598 | 10530 ft | 307 kts | 176° |
| 2026-05-05 10:16 | 17.44876 | 121.70771 | 10901 ft | 323 kts | 176° |
| 2026-05-05 10:16 | 17.42570 | 121.70954 | 11240 ft | 340 kts | 176° |
| 2026-05-05 10:17 | 17.40157 | 121.71146 | 11594 ft | 355 kts | 176° |
| 2026-05-05 10:17 | 17.37672 | 121.71343 | 12161 ft | 361 kts | 176° |
| 2026-05-05 10:17 | 17.35153 | 121.71541 | 12806 ft | 365 kts | 176° |
| 2026-05-05 10:17 | 17.32608 | 121.71736 | 13448 ft | 369 kts | 176° |
| 2026-05-05 10:18 | 17.30037 | 121.71931 | 14022 ft | 372 kts | 176° |
| 2026-05-05 10:18 | 17.27441 | 121.72130 | 14583 ft | 375 kts | 176° |
| 2026-05-05 10:18 | 17.24828 | 121.72334 | 15140 ft | 378 kts | 176° |
| 2026-05-05 10:18 | 17.22191 | 121.72542 | 15684 ft | 381 kts | 176° |
| 2026-05-05 10:19 | 17.19541 | 121.72748 | 16234 ft | 384 kts | 176° |
| 2026-05-05 10:19 | 17.16862 | 121.72958 | 16770 ft | 387 kts | 176° |
| 2026-05-05 10:19 | 17.14169 | 121.73173 | 17311 ft | 390 kts | 176° |
| 2026-05-05 10:19 | 17.11449 | 121.73390 | 17838 ft | 393 kts | 176° |
| 2026-05-05 10:20 | 17.08747 | 121.73598 | 18340 ft | 396 kts | 176° |
| 2026-05-05 10:20 | 17.05992 | 121.73808 | 18806 ft | 398 kts | 176° |
| 2026-05-05 10:20 | 17.03217 | 121.74021 | 19287 ft | 400 kts | 176° |
| 2026-05-05 10:20 | 17.00429 | 121.74238 | 19708 ft | 403 kts | 176° |
| 2026-05-05 10:21 | 16.97634 | 121.74457 | 19836 ft | 403 kts | 177° |
| 2026-05-05 10:21 | 16.94789 | 121.74462 | 19882 ft | 416 kts | 186° |
| 2026-05-05 10:21 | 16.91921 | 121.73909 | 19882 ft | 420 kts | 197° |
| 2026-05-05 10:21 | 16.89192 | 121.72815 | 19883 ft | 420 kts | 206° |
| 2026-05-05 10:22 | 16.86564 | 121.71469 | 19884 ft | 420 kts | 206° |
| 2026-05-05 10:22 | 16.83929 | 121.70135 | 19885 ft | 420 kts | 206° |
| 2026-05-05 10:22 | 16.81291 | 121.68813 | 19883 ft | 421 kts | 206° |
| 2026-05-05 10:22 | 16.78650 | 121.67496 | 19887 ft | 420 kts | 206° |
| 2026-05-05 10:23 | 16.76901 | 121.66624 | 19886 ft | 420 kts | 206° |
| 2026-05-05 10:23 | 16.73374 | 121.64858 | 19890 ft | 421 kts | 206° |
| 2026-05-05 10:23 | 16.70766 | 121.63549 | 19893 ft | 421 kts | 206° |
| 2026-05-05 10:23 | 16.68129 | 121.62224 | 19894 ft | 420 kts | 206° |
| 2026-05-05 10:24 | 16.65495 | 121.60899 | 19896 ft | 420 kts | 206° |
| 2026-05-05 10:24 | 16.62852 | 121.59572 | 19895 ft | 421 kts | 206° |
| 2026-05-05 10:24 | 16.60204 | 121.58246 | 19900 ft | 421 kts | 206° |
| 2026-05-05 10:24 | 16.57568 | 121.56925 | 19902 ft | 421 kts | 206° |
| 2026-05-05 10:25 | 16.54925 | 121.55601 | 19903 ft | 421 kts | 206° |
| 2026-05-05 10:25 | 16.52287 | 121.54281 | 19907 ft | 421 kts | 206° |
| 2026-05-05 10:25 | 16.49647 | 121.52961 | 19912 ft | 421 kts | 206° |
| 2026-05-05 10:25 | 16.47003 | 121.51635 | 19918 ft | 421 kts | 206° |
| 2026-05-05 10:26 | 16.44366 | 121.50312 | 19921 ft | 421 kts | 206° |
| 2026-05-05 10:26 | 16.41751 | 121.49001 | 19922 ft | 422 kts | 206° |
| 2026-05-05 10:26 | 16.39104 | 121.47675 | 19928 ft | 422 kts | 206° |
| 2026-05-05 10:26 | 16.36459 | 121.46352 | 19930 ft | 422 kts | 206° |
| 2026-05-05 10:27 | 16.33810 | 121.45027 | 19927 ft | 423 kts | 206° |
| 2026-05-05 10:27 | 16.31161 | 121.43704 | 19939 ft | 422 kts | 206° |
| 2026-05-05 10:27 | 16.28510 | 121.42380 | 19941 ft | 422 kts | 206° |
| 2026-05-05 10:27 | 16.25863 | 121.41057 | 19947 ft | 422 kts | 206° |
| 2026-05-05 10:28 | 16.23212 | 121.39732 | 19946 ft | 422 kts | 206° |
| 2026-05-05 10:28 | 16.20563 | 121.38408 | 19949 ft | 422 kts | 206° |
| 2026-05-05 10:28 | 16.17908 | 121.37080 | 19948 ft | 423 kts | 206° |
| 2026-05-05 10:28 | 16.15255 | 121.35755 | 19950 ft | 423 kts | 206° |
| 2026-05-05 10:29 | 16.12603 | 121.34428 | 19949 ft | 423 kts | 206° |
| 2026-05-05 10:29 | 16.09953 | 121.33103 | 19951 ft | 422 kts | 206° |
| 2026-05-05 10:29 | 16.07303 | 121.31779 | 19952 ft | 422 kts | 206° |
| 2026-05-05 10:29 | 16.04652 | 121.30457 | 19947 ft | 423 kts | 206° |
| 2026-05-05 10:30 | 16.02034 | 121.29156 | 19951 ft | 422 kts | 206° |
| 2026-05-05 10:30 | 15.99386 | 121.27839 | 19949 ft | 422 kts | 206° |
| 2026-05-05 10:30 | 15.96739 | 121.26521 | 19947 ft | 422 kts | 205° |
| 2026-05-05 10:30 | 15.94088 | 121.25200 | 19944 ft | 422 kts | 206° |
| 2026-05-05 10:31 | 15.91438 | 121.23880 | 19943 ft | 422 kts | 206° |
| 2026-05-05 10:31 | 15.88792 | 121.22564 | 19942 ft | 422 kts | 206° |
| 2026-05-05 10:31 | 15.86138 | 121.21245 | 19938 ft | 422 kts | 206° |
| 2026-05-05 10:31 | 15.83483 | 121.19926 | 19936 ft | 423 kts | 205° |
| 2026-05-05 10:32 | 15.80829 | 121.18609 | 19935 ft | 422 kts | 206° |
| 2026-05-05 10:32 | 15.78178 | 121.17290 | 19929 ft | 423 kts | 206° |
| 2026-05-05 10:32 | 15.75523 | 121.15968 | 19926 ft | 423 kts | 206° |
| 2026-05-05 10:32 | 15.72870 | 121.14648 | 19924 ft | 423 kts | 205° |
| 2026-05-05 10:33 | 15.70220 | 121.13330 | 19921 ft | 423 kts | 206° |
| 2026-05-05 10:33 | 15.67564 | 121.12010 | 19914 ft | 423 kts | 206° |
| 2026-05-05 10:33 | 15.64912 | 121.10694 | 19915 ft | 423 kts | 205° |
| 2026-05-05 10:33 | 15.62256 | 121.09378 | 19912 ft | 423 kts | 205° |
| 2026-05-05 10:34 | 15.59636 | 121.08079 | 19912 ft | 422 kts | 206° |
| 2026-05-05 10:34 | 15.57843 | 121.07189 | 19910 ft | 423 kts | 205° |
| 2026-05-05 10:34 | 15.57709 | 121.07123 | 19913 ft | 422 kts | 205° |
| 2026-05-05 10:34 | 15.55134 | 121.05832 | 19906 ft | 423 kts | 206° |
| 2026-05-05 10:35 | 15.54235 | 121.05383 | 19905 ft | 423 kts | 206° |
| 2026-05-05 10:35 | 15.49821 | 121.03194 | 19902 ft | 423 kts | 205° |
| 2026-05-05 10:35 | 15.47150 | 121.01911 | 19905 ft | 423 kts | 204° |
| 2026-05-05 10:35 | 15.44429 | 121.00745 | 19903 ft | 423 kts | 201° |
| 2026-05-05 10:36 | 15.41669 | 120.99667 | 19902 ft | 423 kts | 200° |
| 2026-05-05 10:36 | 15.38899 | 120.98637 | 19898 ft | 423 kts | 199° |
| 2026-05-05 10:36 | 15.36124 | 120.97614 | 19901 ft | 423 kts | 200° |
| 2026-05-05 10:36 | 15.33355 | 120.96577 | 19899 ft | 423 kts | 200° |
| 2026-05-05 10:37 | 15.30598 | 120.95519 | 19897 ft | 423 kts | 200° |
| 2026-05-05 10:37 | 15.27845 | 120.94444 | 19897 ft | 423 kts | 201° |
| 2026-05-05 10:37 | 15.25091 | 120.93358 | 19899 ft | 423 kts | 201° |
| 2026-05-05 10:37 | 15.22350 | 120.92276 | 19898 ft | 417 kts | 201° |
| 2026-05-05 10:38 | 15.19704 | 120.91234 | 19899 ft | 397 kts | 201° |
| 2026-05-05 10:38 | 15.17181 | 120.90240 | 19891 ft | 380 kts | 201° |
| 2026-05-05 10:38 | 15.14758 | 120.89287 | 19779 ft | 366 kts | 200° |
| 2026-05-05 10:38 | 15.12419 | 120.88369 | 19663 ft | 352 kts | 200° |
| 2026-05-05 10:39 | 15.10163 | 120.87484 | 19551 ft | 340 kts | 200° |
| 2026-05-05 10:39 | 15.07986 | 120.86633 | 19413 ft | 329 kts | 200° |
| 2026-05-05 10:39 | 15.06577 | 120.86082 | 19227 ft | 326 kts | 200° |
| 2026-05-05 10:39 | 15.03781 | 120.84991 | 18770 ft | 323 kts | 200° |
| 2026-05-05 10:40 | 15.01687 | 120.84171 | 18408 ft | 321 kts | 200° |
| 2026-05-05 10:40 | 14.99598 | 120.83354 | 18039 ft | 320 kts | 200° |
| 2026-05-05 10:40 | 14.97524 | 120.82543 | 17639 ft | 318 kts | 200° |
| 2026-05-05 10:40 | 14.95462 | 120.81736 | 17241 ft | 316 kts | 200° |
| 2026-05-05 10:41 | 14.93410 | 120.80934 | 16877 ft | 314 kts | 200° |
| 2026-05-05 10:41 | 14.91368 | 120.80136 | 16505 ft | 313 kts | 200° |
| 2026-05-05 10:41 | 14.89334 | 120.79342 | 16152 ft | 312 kts | 199° |
| 2026-05-05 10:41 | 14.87308 | 120.78554 | 15798 ft | 311 kts | 199° |
| 2026-05-05 10:42 | 14.83276 | 120.76984 | 15009 ft | 312 kts | 199° |
| 2026-05-05 10:42 | 14.81225 | 120.76186 | 14488 ft | 317 kts | 199° |
| 2026-05-05 10:42 | 14.79163 | 120.75383 | 14123 ft | 317 kts | 199° |
| 2026-05-05 10:43 | 14.77104 | 120.74579 | 13772 ft | 315 kts | 199° |
| 2026-05-05 10:43 | 14.75056 | 120.73778 | 13393 ft | 314 kts | 199° |
| 2026-05-05 10:43 | 14.73017 | 120.72984 | 13008 ft | 312 kts | 199° |
| 2026-05-05 10:43 | 14.70987 | 120.72195 | 12625 ft | 311 kts | 199° |
| 2026-05-05 10:44 | 14.68966 | 120.71410 | 12252 ft | 309 kts | 199° |
| 2026-05-05 10:44 | 14.66957 | 120.70628 | 11884 ft | 308 kts | 199° |
| 2026-05-05 10:44 | 14.64960 | 120.69851 | 11513 ft | 306 kts | 199° |
| 2026-05-05 10:44 | 14.62951 | 120.69211 | 11300 ft | 296 kts | 185° |
| 2026-05-05 10:45 | 14.60954 | 120.69260 | 11176 ft | 281 kts | 165° |
| 2026-05-05 10:45 | 14.59170 | 120.69968 | 10960 ft | 272 kts | 148° |
| 2026-05-05 10:45 | 14.57555 | 120.70923 | 10640 ft | 271 kts | 148° |
| 2026-05-05 10:45 | 14.55925 | 120.71882 | 10327 ft | 269 kts | 148° |
| 2026-05-05 10:46 | 14.54300 | 120.72837 | 10002 ft | 268 kts | 148° |
| 2026-05-05 10:46 | 14.52664 | 120.73799 | 9404 ft | 276 kts | 148° |
| 2026-05-05 10:46 | 14.51022 | 120.74889 | 8666 ft | 286 kts | 138° |
| 2026-05-05 10:46 | 14.49494 | 120.76267 | 7916 ft | 297 kts | 137° |
| 2026-05-05 10:47 | 14.47915 | 120.77689 | 7152 ft | 306 kts | 137° |
| 2026-05-05 10:47 | 14.46288 | 120.79149 | 6379 ft | 308 kts | 137° |
| 2026-05-05 10:47 | 14.44687 | 120.80581 | 5598 ft | 302 kts | 136° |
| 2026-05-05 10:47 | 14.43356 | 120.82201 | 4840 ft | 292 kts | 118° |
| 2026-05-05 10:48 | 14.42642 | 120.84119 | 4095 ft | 284 kts | 101° |
| 2026-05-05 10:48 | 14.42572 | 120.86118 | 3381 ft | 277 kts | 82° |
| 2026-05-05 10:48 | 14.43113 | 120.87995 | 2704 ft | 271 kts | 65° |
| 2026-05-05 10:48 | 14.44024 | 120.89640 | 2274 ft | 255 kts | 62° |
| 2026-05-05 10:49 | 14.44852 | 120.91132 | 1951 ft | 225 kts | 62° |
| 2026-05-05 10:49 | 14.45581 | 120.92448 | 1681 ft | 199 kts | 62° |
| 2026-05-05 10:49 | 14.46227 | 120.93611 | 1436 ft | 175 kts | 62° |
| 2026-05-05 10:49 | 14.46791 | 120.94625 | 1240 ft | 151 kts | 63° |
| 2026-05-05 10:50 | 14.47276 | 120.95494 | 1060 ft | 134 kts | 63° |
| 2026-05-05 10:50 | 14.47588 | 120.96057 | 947 ft | 132 kts | 64° |
| 2026-05-05 10:50 | 14.47741 | 120.96332 | 894 ft | 130 kts | 65° |
| 2026-05-05 10:50 | 14.48039 | 120.96868 | 784 ft | 130 kts | 65° |
| 2026-05-05 10:51 | 14.49086 | 120.98748 | 404 ft | 131 kts | 65° |
| 2026-05-05 10:51 | 14.49540 | 120.99580 | 267 ft | 131 kts | 64° |
| 2026-05-05 10:51 | 14.49982 | 121.00354 | 87 ft | 118 kts | 65° |
| 2026-05-05 10:51 | 14.50329 | 121.00996 | 70 ft | 81 kts | 59° |
| 2026-05-05 10:52 | 14.50527 | 121.01353 | 69 ft | 44 kts | 62° |